FCY949 EIDW-LFOB
Flight info
| Callsign | FCY949 |
|---|---|
| Flight time | 1h 12m |
| Altitude | 37000 |
| Route | ENDEQ3J ENDEQ Q36 EPOXI L15 KEPAD L151 MID Y803 SFD/N0409F230 M605 XIDIL/N0386F190 M605 PETAX J150 VELOL |
| Aircraft | A20N/M-SDE2E3FGHIRWXY/LB1 |
Departure
| Time | 2026-04-26 18:59 |
|---|---|
| Airport | Dublin Airport (EIDW) |
Arrival
| Time | 2026-04-26 20:12 |
|---|---|
| Airport | Beauvais-Tillé airport (LFOB) |
| Time | Latitude | Longitude | Altitude | Speed | Heading |
|---|---|---|---|---|---|
| 2026-04-26 18:16 | 53.42264 | -6.23896 | 218 ft | 0 kts | 27° |
| 2026-04-26 18:45 | 53.42261 | -6.23899 | 214 ft | 1 kts | 27° |
| 2026-04-26 18:46 | 53.42260 | -6.23900 | 214 ft | 1 kts | 27° |
| 2026-04-26 18:46 | 53.42253 | -6.23906 | 212 ft | 0 kts | 42° |
| 2026-04-26 18:46 | 53.42250 | -6.23912 | 217 ft | 1 kts | 22° |
| 2026-04-26 18:46 | 53.42242 | -6.23916 | 214 ft | 1 kts | 352° |
| 2026-04-26 18:47 | 53.42235 | -6.23914 | 216 ft | 1 kts | 321° |
| 2026-04-26 18:47 | 53.42231 | -6.23908 | 211 ft | 0 kts | 302° |
| 2026-04-26 18:50 | 53.42232 | -6.23910 | 215 ft | 1 kts | 302° |
| 2026-04-26 18:50 | 53.42237 | -6.23924 | 212 ft | 2 kts | 302° |
| 2026-04-26 18:50 | 53.42252 | -6.23966 | 211 ft | 6 kts | 302° |
| 2026-04-26 18:50 | 53.42281 | -6.24046 | 218 ft | 10 kts | 302° |
| 2026-04-26 18:51 | 53.42324 | -6.24161 | 216 ft | 13 kts | 302° |
| 2026-04-26 18:51 | 53.42378 | -6.24309 | 220 ft | 16 kts | 301° |
| 2026-04-26 18:51 | 53.42443 | -6.24486 | 213 ft | 19 kts | 301° |
| 2026-04-26 18:51 | 53.42518 | -6.24690 | 211 ft | 22 kts | 301° |
| 2026-04-26 18:52 | 53.42600 | -6.24919 | 210 ft | 24 kts | 301° |
| 2026-04-26 18:52 | 53.42617 | -6.24967 | 210 ft | 0 kts | 301° |
| 2026-04-26 18:53 | 53.42619 | -6.24973 | 211 ft | 1 kts | 301° |
| 2026-04-26 18:53 | 53.42632 | -6.25008 | 214 ft | 7 kts | 301° |
| 2026-04-26 18:53 | 53.42662 | -6.25074 | 214 ft | 6 kts | 336° |
| 2026-04-26 18:53 | 53.42669 | -6.25076 | 210 ft | 0 kts | 338° |
| 2026-04-26 18:54 | 53.42683 | -6.25089 | 216 ft | 4 kts | 332° |
| 2026-04-26 18:54 | 53.42724 | -6.25117 | 213 ft | 8 kts | 346° |
| 2026-04-26 18:54 | 53.42791 | -6.25141 | 210 ft | 12 kts | 345° |
| 2026-04-26 18:54 | 53.42878 | -6.25195 | 213 ft | 15 kts | 335° |
| 2026-04-26 18:55 | 53.42980 | -6.25277 | 213 ft | 18 kts | 335° |
| 2026-04-26 18:55 | 53.43102 | -6.25367 | 215 ft | 20 kts | 326° |
| 2026-04-26 18:55 | 53.43214 | -6.25522 | 213 ft | 20 kts | 322° |
| 2026-04-26 18:55 | 53.43309 | -6.25622 | 216 ft | 15 kts | 333° |
| 2026-04-26 18:56 | 53.43392 | -6.25592 | 210 ft | 10 kts | 87° |
| 2026-04-26 18:56 | 53.43402 | -6.25460 | 213 ft | 13 kts | 93° |
| 2026-04-26 18:56 | 53.43395 | -6.25299 | 210 ft | 15 kts | 95° |
| 2026-04-26 18:56 | 53.43386 | -6.25112 | 216 ft | 17 kts | 94° |
| 2026-04-26 18:57 | 53.43376 | -6.24896 | 213 ft | 20 kts | 95° |
| 2026-04-26 18:57 | 53.43364 | -6.24740 | 214 ft | 19 kts | 95° |
| 2026-04-26 18:57 | 53.43447 | -6.24558 | 212 ft | 14 kts | 7° |
| 2026-04-26 18:57 | 53.43521 | -6.24581 | 216 ft | 10 kts | 299° |
| 2026-04-26 18:58 | 53.43524 | -6.24594 | 216 ft | 0 kts | 288° |
| 2026-04-26 18:59 | 53.43545 | -6.25031 | 212 ft | 73 kts | 273° |
| 2026-04-26 18:59 | 53.43613 | -6.26235 | 211 ft | 131 kts | 276° |
| 2026-04-26 18:59 | 53.43703 | -6.27986 | 359 ft | 159 kts | 273° |
| 2026-04-26 18:59 | 53.43792 | -6.29761 | 969 ft | 153 kts | 274° |
| 2026-04-26 19:00 | 53.43874 | -6.31544 | 1544 ft | 152 kts | 275° |
| 2026-04-26 19:00 | 53.43957 | -6.33322 | 2146 ft | 157 kts | 275° |
| 2026-04-26 19:00 | 53.44049 | -6.35250 | 2562 ft | 176 kts | 275° |
| 2026-04-26 19:00 | 53.44151 | -6.37399 | 2946 ft | 194 kts | 275° |
| 2026-04-26 19:01 | 53.44267 | -6.39763 | 3227 ft | 214 kts | 275° |
| 2026-04-26 19:01 | 53.44396 | -6.42397 | 3548 ft | 239 kts | 275° |
| 2026-04-26 19:01 | 53.44538 | -6.45285 | 4160 ft | 255 kts | 275° |
| 2026-04-26 19:01 | 53.44684 | -6.48274 | 5166 ft | 259 kts | 275° |
| 2026-04-26 19:02 | 53.44832 | -6.51316 | 6178 ft | 264 kts | 275° |
| 2026-04-26 19:02 | 53.44982 | -6.54407 | 7177 ft | 268 kts | 275° |
| 2026-04-26 19:02 | 53.45133 | -6.57545 | 8148 ft | 272 kts | 275° |
| 2026-04-26 19:02 | 53.45234 | -6.59646 | 8817 ft | 273 kts | 275° |
| 2026-04-26 19:03 | 53.45440 | -6.63930 | 10171 ft | 278 kts | 275° |
| 2026-04-26 19:03 | 53.45598 | -6.67220 | 10850 ft | 292 kts | 275° |
| 2026-04-26 19:03 | 53.45767 | -6.70763 | 11220 ft | 316 kts | 275° |
| 2026-04-26 19:03 | 53.45947 | -6.74548 | 11704 ft | 332 kts | 275° |
| 2026-04-26 19:04 | 53.46132 | -6.78429 | 12556 ft | 336 kts | 275° |
| 2026-04-26 19:04 | 53.46315 | -6.82309 | 13403 ft | 340 kts | 275° |
| 2026-04-26 19:04 | 53.46503 | -6.86291 | 14222 ft | 345 kts | 275° |
| 2026-04-26 19:04 | 53.46692 | -6.90322 | 14979 ft | 348 kts | 275° |
| 2026-04-26 19:05 | 53.47075 | -6.98518 | 16504 ft | 356 kts | 276° |
| 2026-04-26 19:05 | 53.47268 | -7.02690 | 17244 ft | 360 kts | 276° |
| 2026-04-26 19:05 | 53.47463 | -7.06905 | 17979 ft | 364 kts | 276° |
| 2026-04-26 19:06 | 53.47745 | -7.11141 | 18673 ft | 367 kts | 284° |
| 2026-04-26 19:06 | 53.48701 | -7.15098 | 19287 ft | 368 kts | 302° |
| 2026-04-26 19:06 | 53.50366 | -7.18362 | 19906 ft | 371 kts | 320° |
| 2026-04-26 19:06 | 53.52575 | -7.20616 | 20519 ft | 375 kts | 337° |
| 2026-04-26 19:07 | 53.55125 | -7.21641 | 21115 ft | 382 kts | 354° |
| 2026-04-26 19:07 | 53.57790 | -7.21332 | 21717 ft | 389 kts | 11° |
| 2026-04-26 19:07 | 53.60337 | -7.19700 | 22308 ft | 396 kts | 28° |
| 2026-04-26 19:07 | 53.62543 | -7.16870 | 22890 ft | 404 kts | 44° |
| 2026-04-26 19:08 | 53.64232 | -7.13053 | 23470 ft | 411 kts | 60° |
| 2026-04-26 19:08 | 53.65266 | -7.08538 | 24007 ft | 418 kts | 76° |
| 2026-04-26 19:08 | 53.65568 | -7.03638 | 24466 ft | 424 kts | 91° |
| 2026-04-26 19:08 | 53.65106 | -6.98723 | 24934 ft | 428 kts | 107° |
| 2026-04-26 19:09 | 53.63914 | -6.94135 | 25411 ft | 429 kts | 122° |
| 2026-04-26 19:09 | 53.62294 | -6.89898 | 25902 ft | 432 kts | 123° |
| 2026-04-26 19:09 | 53.60875 | -6.85424 | 26385 ft | 435 kts | 115° |
| 2026-04-26 19:09 | 53.59819 | -6.80618 | 26845 ft | 439 kts | 108° |
| 2026-04-26 19:10 | 53.59045 | -6.75631 | 27282 ft | 443 kts | 104° |
| 2026-04-26 19:10 | 53.58420 | -6.70539 | 27698 ft | 446 kts | 102° |
| 2026-04-26 19:10 | 53.57854 | -6.65390 | 28106 ft | 449 kts | 102° |
| 2026-04-26 19:10 | 53.57297 | -6.60197 | 28530 ft | 452 kts | 102° |
| 2026-04-26 19:11 | 53.56740 | -6.55047 | 28914 ft | 455 kts | 102° |
| 2026-04-26 19:11 | 53.56164 | -6.49807 | 29358 ft | 455 kts | 102° |
| 2026-04-26 19:11 | 53.55574 | -6.44501 | 29794 ft | 457 kts | 102° |
| 2026-04-26 19:11 | 53.54992 | -6.39304 | 30118 ft | 460 kts | 102° |
| 2026-04-26 19:12 | 53.54393 | -6.34000 | 30475 ft | 463 kts | 103° |
| 2026-04-26 19:12 | 53.53789 | -6.28674 | 30795 ft | 465 kts | 103° |
| 2026-04-26 19:12 | 53.53179 | -6.23323 | 31099 ft | 468 kts | 103° |
| 2026-04-26 19:12 | 53.52563 | -6.17939 | 31396 ft | 470 kts | 103° |
| 2026-04-26 19:13 | 53.51943 | -6.12531 | 31772 ft | 471 kts | 103° |
| 2026-04-26 19:13 | 53.51322 | -6.07139 | 32192 ft | 470 kts | 103° |
| 2026-04-26 19:13 | 53.50698 | -6.01744 | 32596 ft | 470 kts | 104° |
| 2026-04-26 19:13 | 53.50073 | -5.96366 | 32996 ft | 469 kts | 104° |
| 2026-04-26 19:14 | 53.49446 | -5.90989 | 33143 ft | 468 kts | 104° |
| 2026-04-26 19:14 | 53.48187 | -5.80282 | 33271 ft | 467 kts | 104° |
| 2026-04-26 19:15 | 53.46919 | -5.69586 | 33267 ft | 467 kts | 104° |
| 2026-04-26 19:15 | 53.45643 | -5.58901 | 33269 ft | 467 kts | 104° |
| 2026-04-26 19:16 | 53.44527 | -5.48162 | 33274 ft | 469 kts | 97° |
| 2026-04-26 19:16 | 53.44251 | -5.37206 | 33266 ft | 470 kts | 95° |
| 2026-04-26 19:17 | 53.43986 | -5.26237 | 33272 ft | 470 kts | 95° |
| 2026-04-26 19:17 | 53.43702 | -5.15275 | 33271 ft | 471 kts | 95° |
| 2026-04-26 19:18 | 53.43365 | -5.04294 | 33271 ft | 471 kts | 96° |
| 2026-04-26 19:18 | 53.43005 | -4.93327 | 33273 ft | 471 kts | 96° |
| 2026-04-26 19:19 | 53.42642 | -4.82362 | 33270 ft | 471 kts | 96° |
| 2026-04-26 19:19 | 53.42277 | -4.71473 | 33270 ft | 471 kts | 96° |
| 2026-04-26 19:20 | 53.41901 | -4.60507 | 33269 ft | 472 kts | 96° |
| 2026-04-26 19:20 | 53.41513 | -4.49517 | 33266 ft | 472 kts | 96° |
| 2026-04-26 19:21 | 53.41115 | -4.38543 | 33270 ft | 472 kts | 96° |
| 2026-04-26 19:21 | 53.40707 | -4.27558 | 33271 ft | 472 kts | 96° |
| 2026-04-26 19:22 | 53.40289 | -4.16581 | 33271 ft | 472 kts | 97° |
| 2026-04-26 19:22 | 53.39859 | -4.05583 | 33277 ft | 476 kts | 97° |
| 2026-04-26 19:23 | 53.39418 | -3.94534 | 33275 ft | 475 kts | 97° |
| 2026-04-26 19:23 | 53.38967 | -3.83489 | 33281 ft | 475 kts | 97° |
| 2026-04-26 19:24 | 53.38505 | -3.72462 | 33283 ft | 475 kts | 98° |
| 2026-04-26 19:24 | 53.36159 | -3.56601 | 33276 ft | 466 kts | 118° |
| 2026-04-26 19:25 | 53.34386 | -3.49956 | 33278 ft | 466 kts | 121° |
| 2026-04-26 19:25 | 53.31581 | -3.42383 | 33280 ft | 458 kts | 132° |
| 2026-04-26 19:25 | 53.29543 | -3.38322 | 33282 ft | 455 kts | 136° |
| 2026-04-26 19:26 | 53.25346 | -3.30414 | 33278 ft | 455 kts | 136° |
| 2026-04-26 19:26 | 53.21153 | -3.22496 | 33278 ft | 455 kts | 136° |
| 2026-04-26 19:27 | 53.16961 | -3.14602 | 33281 ft | 454 kts | 137° |
| 2026-04-26 19:27 | 53.12767 | -3.06733 | 33281 ft | 454 kts | 137° |
| 2026-04-26 19:28 | 53.08540 | -2.98832 | 33278 ft | 459 kts | 137° |
| 2026-04-26 19:28 | 53.04301 | -2.90926 | 33279 ft | 458 kts | 137° |
| 2026-04-26 19:29 | 53.00057 | -2.83039 | 33277 ft | 458 kts | 137° |
| 2026-04-26 19:29 | 52.95840 | -2.75226 | 33269 ft | 457 kts | 137° |
| 2026-04-26 19:30 | 52.91589 | -2.67377 | 33267 ft | 457 kts | 137° |
| 2026-04-26 19:30 | 52.88744 | -2.62136 | 33263 ft | 457 kts | 137° |
| 2026-04-26 19:31 | 52.83076 | -2.51738 | 33258 ft | 457 kts | 138° |
| 2026-04-26 19:31 | 52.78290 | -2.44868 | 33262 ft | 453 kts | 151° |
| 2026-04-26 19:32 | 52.73060 | -2.39137 | 33272 ft | 451 kts | 152° |
| 2026-04-26 19:32 | 52.67842 | -2.33406 | 33283 ft | 451 kts | 152° |
| 2026-04-26 19:33 | 52.62621 | -2.27674 | 33284 ft | 451 kts | 152° |
| 2026-04-26 19:33 | 52.58287 | -2.22928 | 33289 ft | 450 kts | 152° |
| 2026-04-26 19:34 | 52.53064 | -2.17225 | 33285 ft | 451 kts | 152° |
| 2026-04-26 19:34 | 52.47842 | -2.11540 | 33283 ft | 450 kts | 152° |
| 2026-04-26 19:35 | 52.42621 | -2.05872 | 33281 ft | 450 kts | 152° |
| 2026-04-26 19:35 | 52.37394 | -2.00210 | 33282 ft | 450 kts | 152° |
| 2026-04-26 19:36 | 52.33036 | -1.95506 | 33282 ft | 453 kts | 152° |
| 2026-04-26 19:36 | 52.26878 | -1.88879 | 33262 ft | 453 kts | 152° |
| 2026-04-26 19:37 | 52.21616 | -1.83233 | 33286 ft | 453 kts | 151° |
| 2026-04-26 19:37 | 52.16385 | -1.77635 | 33287 ft | 453 kts | 151° |
| 2026-04-26 19:38 | 52.11120 | -1.72016 | 33286 ft | 452 kts | 152° |
| 2026-04-26 19:38 | 52.05854 | -1.66410 | 33285 ft | 453 kts | 151° |
| 2026-04-26 19:39 | 52.00584 | -1.60802 | 33275 ft | 453 kts | 151° |
| 2026-04-26 19:39 | 51.95310 | -1.55228 | 33271 ft | 452 kts | 152° |
| 2026-04-26 19:40 | 51.90036 | -1.49673 | 33268 ft | 452 kts | 152° |
| 2026-04-26 19:40 | 51.84751 | -1.44122 | 33265 ft | 455 kts | 152° |
| 2026-04-26 19:41 | 51.79423 | -1.38538 | 33246 ft | 456 kts | 151° |
| 2026-04-26 19:41 | 51.74999 | -1.33906 | 33265 ft | 456 kts | 151° |
| 2026-04-26 19:42 | 51.68778 | -1.27417 | 33267 ft | 455 kts | 151° |
| 2026-04-26 19:42 | 51.63455 | -1.21882 | 33265 ft | 455 kts | 152° |
| 2026-04-26 19:43 | 51.58128 | -1.16360 | 33265 ft | 455 kts | 152° |
| 2026-04-26 19:43 | 51.52789 | -1.10838 | 33266 ft | 456 kts | 152° |
| 2026-04-26 19:44 | 51.47453 | -1.05336 | 33268 ft | 456 kts | 152° |
| 2026-04-26 19:44 | 51.42109 | -0.99841 | 33272 ft | 456 kts | 152° |
| 2026-04-26 19:45 | 51.36765 | -0.94362 | 33275 ft | 458 kts | 151° |
| 2026-04-26 19:45 | 51.31375 | -0.88858 | 33262 ft | 460 kts | 151° |
| 2026-04-26 19:46 | 51.25984 | -0.83359 | 33265 ft | 460 kts | 151° |
| 2026-04-26 19:46 | 51.20591 | -0.77877 | 33265 ft | 460 kts | 151° |
| 2026-04-26 19:47 | 51.16107 | -0.73331 | 33267 ft | 459 kts | 151° |
| 2026-04-26 19:47 | 51.09835 | -0.66988 | 33271 ft | 459 kts | 151° |
| 2026-04-26 19:48 | 51.04923 | -0.60406 | 33276 ft | 468 kts | 134° |
| 2026-04-26 19:48 | 51.01222 | -0.51841 | 33273 ft | 472 kts | 124° |
| 2026-04-26 19:49 | 50.97790 | -0.42954 | 33270 ft | 472 kts | 124° |
| 2026-04-26 19:49 | 50.94339 | -0.34102 | 33267 ft | 472 kts | 124° |
| 2026-04-26 19:50 | 50.90871 | -0.25251 | 33290 ft | 472 kts | 124° |
| 2026-04-26 19:50 | 50.87399 | -0.16423 | 33274 ft | 472 kts | 124° |
| 2026-04-26 19:51 | 50.83919 | -0.07603 | 33288 ft | 472 kts | 124° |
| 2026-04-26 19:51 | 50.80435 | 0.01196 | 33283 ft | 473 kts | 124° |
| 2026-04-26 19:52 | 50.76789 | 0.09856 | 33289 ft | 472 kts | 131° |
| 2026-04-26 19:52 | 50.72210 | 0.17186 | 33290 ft | 466 kts | 144° |
| 2026-04-26 19:53 | 50.67201 | 0.23550 | 33289 ft | 466 kts | 144° |
| 2026-04-26 19:53 | 50.62154 | 0.29990 | 33273 ft | 466 kts | 144° |
| 2026-04-26 19:54 | 50.59641 | 0.33193 | 33006 ft | 465 kts | 144° |
| 2026-04-26 19:54 | 50.57129 | 0.36392 | 32357 ft | 466 kts | 144° |
| 2026-04-26 19:54 | 50.54598 | 0.39608 | 31416 ft | 470 kts | 144° |
| 2026-04-26 19:54 | 50.52030 | 0.42861 | 30311 ft | 478 kts | 143° |
| 2026-04-26 19:55 | 50.49421 | 0.46164 | 29069 ft | 484 kts | 143° |
| 2026-04-26 19:55 | 50.46800 | 0.49478 | 28146 ft | 483 kts | 143° |
| 2026-04-26 19:55 | 50.44204 | 0.52761 | 27489 ft | 476 kts | 143° |
| 2026-04-26 19:55 | 50.41640 | 0.55997 | 26800 ft | 470 kts | 143° |
| 2026-04-26 19:56 | 50.39107 | 0.59189 | 26159 ft | 464 kts | 143° |
| 2026-04-26 19:56 | 50.36604 | 0.62337 | 25503 ft | 459 kts | 143° |
| 2026-04-26 19:56 | 50.34156 | 0.65410 | 24875 ft | 454 kts | 143° |
| 2026-04-26 19:56 | 50.31705 | 0.68484 | 24241 ft | 449 kts | 143° |
| 2026-04-26 19:57 | 50.29281 | 0.71520 | 23581 ft | 444 kts | 143° |
| 2026-04-26 19:57 | 50.26879 | 0.74525 | 22847 ft | 440 kts | 143° |
| 2026-04-26 19:57 | 50.24496 | 0.77501 | 22132 ft | 436 kts | 143° |
| 2026-04-26 19:57 | 50.22139 | 0.80442 | 21431 ft | 432 kts | 143° |
| 2026-04-26 19:58 | 50.19806 | 0.83361 | 20740 ft | 428 kts | 142° |
| 2026-04-26 19:58 | 50.17647 | 0.86545 | 20052 ft | 427 kts | 134° |
| 2026-04-26 19:58 | 50.15695 | 0.90016 | 19399 ft | 424 kts | 133° |
| 2026-04-26 19:58 | 50.13759 | 0.93484 | 18750 ft | 420 kts | 133° |
| 2026-04-26 19:59 | 50.11844 | 0.96899 | 18072 ft | 416 kts | 133° |
| 2026-04-26 19:59 | 50.09947 | 1.00270 | 17445 ft | 411 kts | 133° |
| 2026-04-26 19:59 | 50.08075 | 1.03590 | 16810 ft | 406 kts | 133° |
| 2026-04-26 19:59 | 50.06222 | 1.06871 | 16166 ft | 401 kts | 133° |
| 2026-04-26 20:00 | 50.04389 | 1.10110 | 15572 ft | 396 kts | 133° |
| 2026-04-26 20:00 | 50.02580 | 1.13306 | 14949 ft | 392 kts | 133° |
| 2026-04-26 20:00 | 50.00785 | 1.16472 | 14372 ft | 388 kts | 133° |
| 2026-04-26 20:00 | 49.99004 | 1.19611 | 13712 ft | 385 kts | 133° |
| 2026-04-26 20:01 | 49.97248 | 1.22703 | 13104 ft | 380 kts | 133° |
| 2026-04-26 20:01 | 49.95500 | 1.25774 | 12555 ft | 375 kts | 132° |
| 2026-04-26 20:01 | 49.93784 | 1.28771 | 11973 ft | 370 kts | 134° |
| 2026-04-26 20:01 | 49.92003 | 1.31572 | 11354 ft | 367 kts | 135° |
| 2026-04-26 20:02 | 49.90190 | 1.34413 | 10779 ft | 363 kts | 135° |
| 2026-04-26 20:02 | 49.88474 | 1.37107 | 10610 ft | 348 kts | 135° |
| 2026-04-26 20:02 | 49.86809 | 1.39719 | 10471 ft | 333 kts | 135° |
| 2026-04-26 20:02 | 49.85722 | 1.41421 | 10384 ft | 323 kts | 135° |
| 2026-04-26 20:03 | 49.83684 | 1.44613 | 10222 ft | 306 kts | 135° |
| 2026-04-26 20:03 | 49.82212 | 1.46915 | 9958 ft | 298 kts | 135° |
| 2026-04-26 20:03 | 49.80759 | 1.49184 | 9571 ft | 295 kts | 135° |
| 2026-04-26 20:03 | 49.79318 | 1.51432 | 9125 ft | 294 kts | 135° |
| 2026-04-26 20:04 | 49.77879 | 1.53673 | 8700 ft | 292 kts | 135° |
| 2026-04-26 20:04 | 49.76451 | 1.55894 | 8308 ft | 290 kts | 135° |
| 2026-04-26 20:04 | 49.75032 | 1.58102 | 7899 ft | 289 kts | 135° |
| 2026-04-26 20:04 | 49.73623 | 1.60291 | 7533 ft | 286 kts | 135° |
| 2026-04-26 20:05 | 49.72217 | 1.62474 | 7114 ft | 286 kts | 134° |
| 2026-04-26 20:05 | 49.70821 | 1.64640 | 6762 ft | 283 kts | 134° |
| 2026-04-26 20:05 | 49.69435 | 1.66789 | 6362 ft | 281 kts | 135° |
| 2026-04-26 20:05 | 49.68058 | 1.68923 | 5978 ft | 279 kts | 135° |
| 2026-04-26 20:06 | 49.66691 | 1.71040 | 5569 ft | 278 kts | 135° |
| 2026-04-26 20:06 | 49.65335 | 1.73137 | 5270 ft | 272 kts | 135° |
| 2026-04-26 20:06 | 49.64008 | 1.75187 | 4948 ft | 269 kts | 135° |
| 2026-04-26 20:06 | 49.62709 | 1.77187 | 4608 ft | 265 kts | 134° |
| 2026-04-26 20:07 | 49.61410 | 1.79184 | 4268 ft | 262 kts | 134° |
| 2026-04-26 20:07 | 49.60131 | 1.81154 | 3775 ft | 258 kts | 134° |
| 2026-04-26 20:07 | 49.58871 | 1.83096 | 3402 ft | 250 kts | 134° |
| 2026-04-26 20:07 | 49.57621 | 1.85021 | 3301 ft | 255 kts | 133° |
| 2026-04-26 20:08 | 49.56389 | 1.86917 | 3187 ft | 245 kts | 133° |
| 2026-04-26 20:08 | 49.55270 | 1.88810 | 3059 ft | 234 kts | 127° |
| 2026-04-26 20:08 | 49.54320 | 1.90764 | 3003 ft | 221 kts | 123° |
| 2026-04-26 20:08 | 49.53501 | 1.92679 | 2999 ft | 208 kts | 121° |
| 2026-04-26 20:09 | 49.52683 | 1.94563 | 2825 ft | 213 kts | 121° |
| 2026-04-26 20:09 | 49.51865 | 1.96456 | 2519 ft | 212 kts | 120° |
| 2026-04-26 20:09 | 49.51052 | 1.98339 | 2223 ft | 210 kts | 120° |
| 2026-04-26 20:09 | 49.50250 | 2.00190 | 1968 ft | 205 kts | 120° |
| 2026-04-26 20:10 | 49.49469 | 2.01991 | 1683 ft | 200 kts | 120° |
| 2026-04-26 20:10 | 49.48707 | 2.03750 | 1402 ft | 195 kts | 120° |
| 2026-04-26 20:10 | 49.47961 | 2.05471 | 1136 ft | 191 kts | 121° |
| 2026-04-26 20:10 | 49.47272 | 2.07054 | 910 ft | 165 kts | 121° |
| 2026-04-26 20:11 | 49.46671 | 2.08434 | 597 ft | 152 kts | 121° |
| 2026-04-26 20:11 | 49.46122 | 2.09721 | 430 ft | 134 kts | 119° |
| 2026-04-26 20:11 | 49.45638 | 2.10845 | 360 ft | 117 kts | 124° |
| 2026-04-26 20:12 | 49.45016 | 2.12254 | 330 ft | 39 kts | 98° |
| 2026-04-26 20:12 | 49.45034 | 2.12517 | 325 ft | 7 kts | 4° |
| 2026-04-26 20:12 | 49.45060 | 2.12421 | 328 ft | 18 kts | 252° |
| 2026-04-26 20:12 | 49.45045 | 2.12232 | 332 ft | 19 kts | 284° |
| 2026-04-26 20:13 | 49.45115 | 2.12032 | 334 ft | 23 kts | 307° |
| 2026-04-26 20:13 | 49.45211 | 2.11828 | 334 ft | 24 kts | 303° |
| 2026-04-26 20:13 | 49.45306 | 2.11603 | 333 ft | 25 kts | 305° |
| 2026-04-26 20:13 | 49.45390 | 2.11398 | 334 ft | 22 kts | 305° |
| 2026-04-26 20:14 | 49.45499 | 2.11360 | 349 ft | 16 kts | 33° |
| 2026-04-26 20:14 | 49.45541 | 2.11507 | 348 ft | 13 kts | 105° |
| 2026-04-26 20:14 | 49.45537 | 2.11539 | 347 ft | 4 kts | 41° |
| 2026-04-26 20:14 | 49.45589 | 2.11491 | 347 ft | 6 kts | 1° |
| 2026-04-26 20:15 | 49.45623 | 2.11530 | 350 ft | 7 kts | 38° |
| 2026-04-26 20:15 | 49.45666 | 2.11584 | 349 ft | 9 kts | 41° |
| 2026-04-26 20:15 | 49.45724 | 2.11610 | 347 ft | 9 kts | 340° |
| 2026-04-26 20:15 | 49.45754 | 2.11573 | 350 ft | 0 kts | 315° |
| 2026-04-26 20:16 | 49.45757 | 2.11568 | 350 ft | 2 kts | 316° |
| 2026-04-26 20:16 | 49.45770 | 2.11548 | 355 ft | 1 kts | 314° |
| 2026-04-26 20:16 | 49.45787 | 2.11523 | 354 ft | 6 kts | 319° |
| 2026-04-26 20:16 | 49.45830 | 2.11510 | 347 ft | 5 kts | 13° |
| 2026-04-26 20:17 | 49.45855 | 2.11528 | 351 ft | 4 kts | 22° |
| 2026-04-26 20:17 | 49.45887 | 2.11531 | 348 ft | 5 kts | 335° |
| 2026-04-26 20:17 | 49.45918 | 2.11486 | 352 ft | 8 kts | 311° |
| 2026-04-26 20:17 | 49.45932 | 2.11463 | 351 ft | 1 kts | 304° |
| 2026-04-26 20:18 | 49.45934 | 2.11459 | 352 ft | 0 kts | 305° |